Time;durP1;ratioP1;P1;durP2;ratioP2;P2;SDS_P1;SDS_P2;PMS_P1;PMS_P2;Temp;Humidity;BMP_temperature;BMP_pressure;BME280_temperature;BME280_humidity;BME280_pressure;Samples;Min_cycle;Max_cycle;Signal;HPM_P1;HPM_P2
2023/09/12 00:00:35;;;;;;;12.90;11.40;;;;;;;20.10;78.84;96537.45;109154;1258;22508;-81
2023/09/12 00:03:30;;;;;;;15.20;10.90;;;;;;;20.06;78.77;96540.98;109214;1271;22600;-81
2023/09/12 00:06:03;;;;;;;12.70;11.40;;;;;;;20.07;78.98;96540.29;109197;1272;22507;-81
2023/09/12 00:08:34;;;;;;;15.20;11.30;;;;;;;20.08;78.90;96538.40;109198;1271;22504;-81
2023/09/12 00:11:10;;;;;;;13.90;10.90;;;;;;;20.09;78.92;96535.81;109189;1271;24143;-82
2023/09/12 00:13:42;;;;;;;16.10;11.80;;;;;;;20.09;78.91;96530.58;109192;1267;23264;-81
2023/09/12 00:16:13;;;;;;;12.60;10.90;;;;;;;20.06;78.71;96527.81;109173;1272;22665;-81
2023/09/12 00:18:44;;;;;;;15.10;11.20;;;;;;;20.05;78.69;96531.09;109166;1272;22511;-81
2023/09/12 00:21:14;;;;;;;11.80;10.60;;;;;;;20.02;78.65;96528.70;109219;1272;22540;-81
2023/09/12 00:23:45;;;;;;;13.10;10.40;;;;;;;20.01;78.81;96529.82;109183;1271;22549;-81
2023/09/12 00:26:16;;;;;;;12.70;11.10;;;;;;;20.00;78.78;96527.59;109213;1271;22549;-82
2023/09/12 00:28:47;;;;;;;12.60;10.90;;;;;;;20.00;78.76;96532.95;109224;1271;25418;-82
2023/09/12 00:31:18;;;;;;;12.80;10.80;;;;;;;19.98;78.75;96535.86;109242;1266;24824;-81
2023/09/12 00:33:49;;;;;;;12.20;11.00;;;;;;;19.98;78.77;96535.02;109195;1263;22522;-79
2023/09/12 00:36:20;;;;;;;12.50;11.10;;;;;;;19.98;78.71;96532.17;108970;1269;23804;-79
2023/09/12 00:38:52;;;;;;;14.70;10.30;;;;;;;19.97;78.68;96532.08;108941;1269;25443;-79
2023/09/12 00:41:23;;;;;;;12.30;11.10;;;;;;;19.96;78.71;96534.35;108923;1269;22790;-79
2023/09/12 00:43:54;;;;;;;11.40;10.20;;;;;;;19.95;78.62;96534.11;109002;1272;22507;-79
2023/09/12 00:46:26;;;;;;;11.70;10.20;;;;;;;19.94;78.61;96534.38;109028;1271;23804;-79
2023/09/12 00:49:00;;;;;;;12.30;10.70;;;;;;;19.91;78.57;96539.30;108944;1269;22515;-80
2023/09/12 00:51:34;;;;;;;11.80;10.40;;;;;;;19.90;78.61;96537.20;108957;1271;22594;-79
2023/09/12 00:54:05;;;;;;;11.50;10.30;;;;;;;19.91;78.75;96537.76;108946;1272;23802;-79
2023/09/12 00:56:37;;;;;;;16.10;10.60;;;;;;;19.91;78.69;96534.38;108927;1272;22532;-79
2023/09/12 00:59:09;;;;;;;12.30;10.00;;;;;;;19.91;78.63;96532.54;108954;1272;22543;-80
2023/09/12 01:01:40;;;;;;;11.50;10.30;;;;;;;19.90;78.68;96531.44;108895;1271;29622;-79
2023/09/12 01:04:12;;;;;;;13.60;11.80;;;;;;;19.88;78.60;96531.52;108916;1271;22581;-79
2023/09/12 01:06:43;;;;;;;13.90;11.60;;;;;;;19.89;78.56;96529.85;108940;1272;22570;-79
2023/09/12 01:09:17;;;;;;;13.00;10.50;;;;;;;19.89;78.64;96528.94;108979;1272;22501;-81
2023/09/12 01:11:49;;;;;;;13.50;11.20;;;;;;;19.88;78.70;96524.39;109230;1269;22537;-81
2023/09/12 01:14:20;;;;;;;11.90;10.30;;;;;;;19.87;78.68;96520.66;109159;1272;23734;-81
2023/09/12 01:16:51;;;;;;;14.00;10.30;;;;;;;19.84;78.66;96518.73;109133;1272;22543;-81
2023/09/12 01:19:22;;;;;;;11.90;10.10;;;;;;;19.80;78.46;96522.05;109198;1272;22572;-82
2023/09/12 01:22:31;;;;;;;11.70;10.50;;;;;;;19.71;78.52;96520.96;109195;1267;22539;-82
2023/09/12 01:25:36;;;;;;;11.90;10.70;;;;;;;19.68;78.79;96516.46;109213;1272;23221;-82
2023/09/12 01:28:10;;;;;;;13.80;10.50;;;;;;;19.67;78.82;96513.67;109222;1272;23926;-82
2023/09/12 01:30:43;;;;;;;11.90;10.60;;;;;;;19.66;78.88;96516.63;109160;1266;22508;-82
2023/09/12 01:33:13;;;;;;;11.40;10.10;;;;;;;19.62;78.81;96517.20;109228;1272;24231;-81
2023/09/12 01:35:46;;;;;;;10.90;9.80;;;;;;;19.58;78.96;96516.86;109190;1272;22504;-81
2023/09/12 01:38:17;;;;;;;11.40;10.20;;;;;;;19.54;79.02;96519.34;109252;1269;22512;-82
2023/09/12 01:40:50;;;;;;;11.10;10.00;;;;;;;19.52;79.02;96519.34;109127;1272;22552;-82
2023/09/12 01:43:23;;;;;;;12.90;11.00;;;;;;;19.49;79.09;96523.80;109187;1272;25414;-82
2023/09/12 01:45:56;;;;;;;11.20;9.60;;;;;;;19.48;79.19;96522.67;109218;1269;22518;-82
2023/09/12 01:48:33;;;;;;;12.60;11.00;;;;;;;19.47;79.31;96524.05;109198;1272;25418;-82
2023/09/12 01:51:08;;;;;;;12.90;10.20;;;;;;;19.48;79.42;96525.06;109200;1271;22510;-82
2023/09/12 01:53:39;;;;;;;12.60;11.30;;;;;;;19.46;79.43;96524.55;109196;1266;22508;-82
2023/09/12 01:56:12;;;;;;;13.80;11.00;;;;;;;19.48;79.52;96526.54;109207;1272;22521;-82
2023/09/12 01:58:43;;;;;;;12.30;10.10;;;;;;;19.49;79.49;96531.17;109241;1269;24226;-82
2023/09/12 02:01:15;;;;;;;13.00;10.40;;;;;;;19.49;79.32;96530.46;109132;1250;25415;-82
2023/09/12 02:03:46;;;;;;;12.80;10.30;;;;;;;19.44;79.40;96524.65;109224;1271;23186;-82
2023/09/12 02:06:17;;;;;;;12.10;10.80;;;;;;;19.44;79.66;96525.34;109212;1272;22583;-82
2023/09/12 02:08:48;;;;;;;11.90;10.60;;;;;;;19.45;79.46;96527.13;109215;1268;25278;-82
2023/09/12 02:11:19;;;;;;;11.40;10.20;;;;;;;19.44;79.47;96527.34;109185;1271;24183;-82
2023/09/12 02:13:50;;;;;;;11.80;10.60;;;;;;;19.45;79.50;96525.06;109206;1268;24219;-82
2023/09/12 02:16:21;;;;;;;12.50;10.10;;;;;;;19.43;79.45;96522.94;109183;1269;22918;-82
2023/09/12 02:18:52;;;;;;;12.90;11.40;;;;;;;19.42;79.41;96521.17;109239;1267;22515;-82
2023/09/12 02:21:23;;;;;;;13.20;10.60;;;;;;;19.40;79.52;96524.89;109222;1267;31159;-82
2023/09/12 02:23:55;;;;;;;11.50;10.30;;;;;;;19.40;79.52;96522.42;109247;1269;22525;-82
2023/09/12 02:26:28;;;;;;;13.00;10.20;;;;;;;19.39;79.54;96522.86;109234;1272;22534;-82
2023/09/12 02:29:00;;;;;;;12.00;10.10;;;;;;;19.38;79.58;96521.07;109303;1269;24584;-82
2023/09/12 02:31:32;;;;;;;11.20;10.00;;;;;;;19.38;79.53;96521.67;109190;1267;22572;-82
2023/09/12 02:34:03;;;;;;;12.20;10.80;;;;;;;19.37;79.50;96520.17;109218;1269;22534;-82
2023/09/12 02:36:34;;;;;;;11.20;9.80;;;;;;;19.37;79.53;96520.55;109158;1269;22522;-82
2023/09/12 02:39:07;;;;;;;12.40;10.60;;;;;;;19.37;79.47;96517.51;109219;1271;22503;-82
2023/09/12 02:41:40;;;;;;;13.00;10.20;;;;;;;19.39;79.43;96518.48;109157;1269;28509;-82
2023/09/12 02:44:14;;;;;;;12.60;9.40;;;;;;;19.41;79.40;96518.05;109180;1272;22647;-82
2023/09/12 02:46:45;;;;;;;12.20;10.40;;;;;;;19.41;79.47;96516.23;109211;1272;22568;-82
2023/09/12 02:49:16;;;;;;;11.20;9.90;;;;;;;19.41;79.29;96521.05;109221;1271;24327;-82
2023/09/12 02:51:48;;;;;;;11.90;10.10;;;;;;;19.40;79.49;96520.12;109204;1269;24251;-83
2023/09/12 02:54:19;;;;;;;12.00;10.10;;;;;;;19.37;79.33;96518.73;109137;1272;22525;-83
2023/09/12 02:56:50;;;;;;;11.20;9.50;;;;;;;19.37;79.39;96516.88;109252;1265;22522;-82
2023/09/12 02:59:24;;;;;;;13.00;10.80;;;;;;;19.34;79.35;96516.20;109193;1272;23785;-82
2023/09/12 03:01:56;;;;;;;11.50;10.00;;;;;;;19.33;79.29;96516.92;109200;1272;23285;-83
2023/09/12 03:04:30;;;;;;;12.60;9.90;;;;;;;19.32;79.34;96517.72;109217;1266;22524;-82
2023/09/12 03:07:01;;;;;;;12.70;9.90;;;;;;;19.29;79.22;96520.18;109225;1269;22511;-82
2023/09/12 03:09:37;;;;;;;12.30;9.70;;;;;;;19.28;79.40;96520.98;109223;1266;24243;-82
2023/09/12 03:12:11;;;;;;;12.10;10.30;;;;;;;19.26;79.31;96517.46;109165;1269;22508;-82
2023/09/12 03:14:42;;;;;;;11.40;10.20;;;;;;;19.24;79.32;96521.85;109175;1271;22768;-82
2023/09/12 03:17:13;;;;;;;11.40;10.20;;;;;;;19.25;79.46;96521.55;109225;1266;23897;-82
2023/09/12 03:19:47;;;;;;;11.10;10.00;;;;;;;19.25;79.38;96519.59;109199;1271;24205;-83
2023/09/12 03:22:18;;;;;;;12.40;9.70;;;;;;;19.24;79.42;96517.41;109181;1272;23467;-83
2023/09/12 03:24:49;;;;;;;12.40;10.80;;;;;;;19.23;79.45;96519.59;109186;1272;22507;-83
2023/09/12 03:27:20;;;;;;;10.80;9.70;;;;;;;19.22;79.52;96518.24;109233;1271;24398;-83
2023/09/12 03:29:51;;;;;;;12.00;10.00;;;;;;;19.22;79.54;96519.95;109198;1272;23167;-83
2023/09/12 03:32:24;;;;;;;11.70;10.40;;;;;;;19.22;79.54;96520.11;109170;1266;22494;-83
2023/09/12 03:34:58;;;;;;;13.10;9.90;;;;;;;19.20;79.41;96519.80;109091;1272;238697;-83
2023/09/12 03:37:34;;;;;;;13.20;10.50;;;;;;;19.19;79.45;96520.54;109222;1272;24244;-83
2023/09/12 03:40:06;;;;;;;13.80;10.10;;;;;;;19.17;79.41;96522.11;109183;1272;43569;-83
2023/09/12 03:42:37;;;;;;;12.00;10.40;;;;;;;19.16;79.57;96524.85;109203;1266;22507;-83
2023/09/12 03:45:10;;;;;;;11.30;9.90;;;;;;;19.15;79.53;96523.81;109203;1272;24192;-82
2023/09/12 03:47:46;;;;;;;11.70;9.70;;;;;;;19.16;79.61;96526.99;109242;1272;22927;-82
2023/09/12 03:50:17;;;;;;;12.60;10.50;;;;;;;19.19;79.55;96522.15;109230;1269;22519;-82
2023/09/12 03:52:48;;;;;;;11.60;10.50;;;;;;;19.19;79.48;96524.45;109257;1271;22654;-82
2023/09/12 03:55:19;;;;;;;11.30;10.10;;;;;;;19.19;79.54;96526.77;109224;1272;22528;-82
2023/09/12 03:57:50;;;;;;;13.50;10.00;;;;;;;19.18;79.39;96525.98;109208;1272;23032;-82
2023/09/12 04:00:22;;;;;;;12.10;9.70;;;;;;;19.17;79.50;96529.80;109215;1270;23778;-82
2023/09/12 04:02:53;;;;;;;12.00;9.90;;;;;;;19.17;79.41;96529.23;109096;1272;22689;-82
2023/09/12 04:05:27;;;;;;;15.80;13.80;;;;;;;19.17;79.46;96531.01;109273;1272;22530;-82
2023/09/12 04:07:58;;;;;;;11.40;10.20;;;;;;;19.18;79.33;96531.34;109226;1266;24030;-81
2023/09/12 04:10:33;;;;;;;20.10;18.00;;;;;;;19.18;79.29;96530.95;109229;1271;22528;-82
2023/09/12 04:13:04;;;;;;;23.10;20.90;;;;;;;19.17;79.34;96532.77;109228;1272;22507;-82
2023/09/12 04:15:35;;;;;;;15.50;11.70;;;;;;;19.16;79.20;96531.11;109214;1269;23068;-82
2023/09/12 04:18:07;;;;;;;13.30;10.90;;;;;;;19.16;79.27;96531.20;109217;1272;25498;-82
2023/09/12 04:20:40;;;;;;;14.30;12.60;;;;;;;19.17;79.21;96526.39;109212;1271;23935;-82
2023/09/12 04:23:11;;;;;;;13.00;11.20;;;;;;;19.17;79.29;96524.95;109201;1269;22541;-82
2023/09/12 04:25:48;;;;;;;11.00;9.40;;;;;;;19.18;79.30;96524.59;109205;1272;22657;-82
2023/09/12 04:28:26;;;;;;;14.90;13.40;;;;;;;19.22;79.29;96531.54;109261;1266;22548;-83
2023/09/12 04:31:04;;;;;;;11.50;9.80;;;;;;;19.25;79.23;96529.24;109265;1269;22571;-82
2023/09/12 04:33:36;;;;;;;12.90;9.90;;;;;;;19.31;79.34;96529.14;109230;1265;22537;-82
2023/09/12 04:36:07;;;;;;;11.30;9.50;;;;;;;19.41;79.34;96531.15;109221;1272;22647;-82
2023/09/12 04:38:40;;;;;;;12.50;9.70;;;;;;;19.52;79.24;96536.19;109215;1272;22562;-82
2023/09/12 04:41:15;;;;;;;10.20;9.10;;;;;;;19.61;78.90;96537.79;109259;1269;22565;-80
2023/09/12 04:43:46;;;;;;;13.40;9.90;;;;;;;19.74;78.96;96541.40;108938;1272;22575;-77
2023/09/12 04:46:17;;;;;;;11.00;9.80;;;;;;;19.82;78.72;96538.02;108971;1272;24568;-77
2023/09/12 04:48:48;;;;;;;11.70;9.00;;;;;;;19.95;78.74;96536.55;108950;1272;22514;-77
2023/09/12 04:51:19;;;;;;;10.40;9.30;;;;;;;20.09;78.53;96532.21;108930;1269;25397;-77
2023/09/12 04:53:51;;;;;;;11.30;8.60;;;;;;;20.22;78.17;96531.19;109032;1269;22625;-77
2023/09/12 04:56:25;;;;;;;11.00;8.60;;;;;;;20.24;77.71;96531.22;109014;1272;22650;-77
2023/09/12 04:59:02;;;;;;;9.20;8.20;;;;;;;20.24;77.69;96532.92;108888;1270;22531;-76
2023/09/12 05:01:33;;;;;;;11.10;8.80;;;;;;;20.31;77.58;96530.75;108937;1266;22625;-77
2023/09/12 05:04:05;;;;;;;10.80;8.70;;;;;;;20.35;77.38;96534.39;108942;1269;22654;-78
2023/09/12 05:06:36;;;;;;;11.00;8.80;;;;;;;20.48;77.27;96536.26;108987;1269;22625;-78
2023/09/12 05:09:08;;;;;;;10.00;8.60;;;;;;;20.74;77.15;96534.15;108947;1265;22508;-77
2023/09/12 05:11:40;;;;;;;10.00;8.90;;;;;;;21.01;76.66;96531.45;108915;1267;22515;-78
2023/09/12 05:14:12;;;;;;;10.40;8.70;;;;;;;21.22;76.02;96532.92;108974;1266;22526;-77
2023/09/12 05:16:45;;;;;;;10.30;8.60;;;;;;;21.37;75.41;96528.65;108968;1272;22624;-77
2023/09/12 05:19:16;;;;;;;9.50;7.60;;;;;;;21.54;75.38;96529.74;109008;1269;22503;-77
2023/09/12 05:21:49;;;;;;;9.10;7.70;;;;;;;21.80;75.18;96530.33;108948;1269;22526;-77
2023/09/12 05:24:21;;;;;;;8.60;7.70;;;;;;;22.08;74.52;96532.80;108973;1272;22514;-78
2023/09/12 05:26:52;;;;;;;9.80;7.90;;;;;;;22.19;73.75;96528.63;109016;1272;22550;-77
2023/09/12 05:29:24;;;;;;;9.30;7.80;;;;;;;22.42;73.42;96533.17;109043;1267;22776;-78
2023/09/12 05:31:56;;;;;;;9.80;8.30;;;;;;;22.57;72.47;96527.20;108911;1257;23930;-77
2023/09/12 05:34:29;;;;;;;10.10;8.30;;;;;;;22.65;72.25;96531.84;108976;1272;23857;-77
2023/09/12 05:37:00;;;;;;;13.90;8.10;;;;;;;22.89;72.06;96535.31;108936;1269;22516;-78
2023/09/12 05:39:34;;;;;;;10.40;7.60;;;;;;;23.05;71.77;96539.31;109050;1269;23950;-76
2023/09/12 05:42:05;;;;;;;9.30;8.20;;;;;;;23.26;71.14;96537.64;108987;1272;22526;-76
2023/09/12 05:44:36;;;;;;;8.60;7.70;;;;;;;23.39;70.68;96542.56;108922;1272;22524;-76
2023/09/12 05:47:10;;;;;;;9.10;7.80;;;;;;;23.42;70.20;96542.99;108940;1266;22515;-77
2023/09/12 05:49:43;;;;;;;8.80;7.90;;;;;;;23.57;70.34;96544.86;108983;1271;22514;-76
2023/09/12 05:52:15;;;;;;;8.70;7.40;;;;;;;23.88;70.08;96543.99;108947;1272;22508;-76
2023/09/12 05:54:46;;;;;;;11.30;7.80;;;;;;;24.10;69.42;96546.01;108940;1270;22666;-76
2023/09/12 05:57:17;;;;;;;9.90;7.70;;;;;;;24.33;69.06;96548.02;108980;1270;22516;-76
2023/09/12 05:59:48;;;;;;;9.00;7.40;;;;;;;24.31;67.55;96548.53;109018;1272;22632;-76
2023/09/12 06:02:19;;;;;;;9.90;7.40;;;;;;;23.99;66.85;96545.46;108927;1269;22508;-76
2023/09/12 06:04:50;;;;;;;9.50;7.10;;;;;;;23.78;66.85;96547.12;108934;1272;22775;-76
2023/09/12 06:07:21;;;;;;;10.20;8.20;;;;;;;23.60;66.60;96544.84;108947;1272;22553;-76
2023/09/12 06:09:52;;;;;;;9.00;8.00;;;;;;;23.48;67.04;96541.92;109023;1271;24948;-75
2023/09/12 06:12:23;;;;;;;11.50;8.10;;;;;;;23.35;66.94;96543.27;108981;1272;22531;-76
2023/09/12 06:14:55;;;;;;;10.20;7.80;;;;;;;23.25;67.11;96546.98;109064;1272;22897;-76
2023/09/12 06:17:29;;;;;;;9.20;7.90;;;;;;;23.21;67.24;96549.75;109085;1270;23053;-76
2023/09/12 06:20:00;;;;;;;10.40;8.30;;;;;;;23.08;66.85;96547.08;109024;1269;23745;-76
2023/09/12 06:22:33;;;;;;;11.90;7.90;;;;;;;22.97;67.23;96554.00;109039;1269;24256;-76
2023/09/12 06:25:05;;;;;;;10.10;8.40;;;;;;;22.97;67.00;96551.52;109090;1272;22517;-76
2023/09/12 06:27:36;;;;;;;8.90;7.90;;;;;;;22.90;67.25;96553.55;109021;1272;25215;-76
2023/09/12 06:30:10;;;;;;;9.60;7.50;;;;;;;22.89;67.12;96553.70;108984;1266;22507;-76
2023/09/12 06:32:41;;;;;;;7.90;7.10;;;;;;;22.91;67.32;96554.51;109089;1271;22512;-76
2023/09/12 06:35:13;;;;;;;9.60;8.50;;;;;;;22.97;67.36;96550.45;108964;1272;24155;-77
2023/09/12 06:37:44;;;;;;;8.70;7.80;;;;;;;22.93;67.34;96555.63;108992;1265;22521;-76
2023/09/12 06:40:16;;;;;;;9.90;7.70;;;;;;;22.95;67.59;96556.27;108980;1272;24744;-76
2023/09/12 06:42:48;;;;;;;10.10;7.80;;;;;;;23.15;67.74;96559.02;108991;1269;24208;-76
2023/09/12 06:45:19;;;;;;;9.20;8.00;;;;;;;23.19;67.26;96557.30;108943;1267;22527;-76
2023/09/12 06:47:50;;;;;;;8.40;7.50;;;;;;;23.16;67.10;96560.58;108965;1272;22548;-77
2023/09/12 06:50:21;;;;;;;9.80;7.70;;;;;;;23.11;66.99;96559.89;108915;1272;25418;-76
2023/09/12 06:52:52;;;;;;;8.70;7.10;;;;;;;23.26;67.58;96558.20;108983;1269;23823;-76
2023/09/12 06:55:23;;;;;;;8.40;7.20;;;;;;;23.49;67.44;96562.80;108933;1272;22521;-76
2023/09/12 06:57:54;;;;;;;8.20;7.40;;;;;;;23.62;67.23;96566.52;108983;1267;25032;-76
2023/09/12 07:00:31;;;;;;;8.80;7.30;;;;;;;23.71;66.94;96567.98;108972;1264;24117;-76
2023/09/12 07:03:02;;;;;;;8.00;7.10;;;;;;;23.69;66.55;96568.73;108967;1272;22529;-77
2023/09/12 07:05:36;;;;;;;9.70;7.50;;;;;;;23.62;66.12;96572.73;108974;1268;22520;-77
2023/09/12 07:08:08;;;;;;;8.50;7.40;;;;;;;23.65;66.23;96575.95;108931;1269;23059;-77
2023/09/12 07:10:44;;;;;;;8.30;6.90;;;;;;;23.66;65.90;96576.65;109009;1269;22547;-76
2023/09/12 07:13:16;;;;;;;8.00;7.20;;;;;;;23.70;65.90;96575.92;108964;1272;23791;-76
2023/09/12 07:15:47;;;;;;;7.90;7.10;;;;;;;23.81;65.69;96575.31;108984;1269;22507;-76
2023/09/12 07:18:20;;;;;;;9.40;7.80;;;;;;;23.83;65.55;96572.34;108940;1270;22653;-76
2023/09/12 07:20:59;;;;;;;8.40;7.00;;;;;;;23.96;65.58;96577.23;108988;1267;22518;-76
2023/09/12 07:23:34;;;;;;;7.90;6.90;;;;;;;24.08;65.58;96575.16;108969;1272;22528;-76
2023/09/12 07:26:05;;;;;;;8.20;7.40;;;;;;;24.11;64.90;96576.05;109053;1272;25430;-76
2023/09/12 07:28:37;;;;;;;7.90;7.10;;;;;;;24.05;64.62;96578.73;108936;1265;22611;-76
2023/09/12 07:31:08;;;;;;;9.20;7.60;;;;;;;24.05;64.58;96577.13;108984;1268;22577;-76
2023/09/12 07:33:41;;;;;;;8.80;7.60;;;;;;;23.97;64.63;96572.84;109027;1272;22506;-76
2023/09/12 07:36:12;;;;;;;7.50;6.50;;;;;;;24.02;64.96;96578.16;109012;1269;22904;-77
2023/09/12 07:38:45;;;;;;;9.10;8.00;;;;;;;24.00;64.34;96576.44;108979;1269;22623;-76
2023/09/12 07:41:16;;;;;;;9.70;7.30;;;;;;;24.07;64.62;96583.42;108971;1269;24899;-76
2023/09/12 07:43:49;;;;;;;7.70;6.50;;;;;;;24.26;64.73;96584.69;108978;1266;22557;-76
2023/09/12 07:46:21;;;;;;;10.70;7.00;;;;;;;24.46;64.75;96582.41;108965;1269;22512;-75
2023/09/12 07:48:56;;;;;;;8.70;7.60;;;;;;;24.56;63.85;96585.02;108977;1268;22526;-75
2023/09/12 07:51:33;;;;;;;13.20;7.80;;;;;;;24.50;63.24;96577.58;108969;1272;23720;-76
2023/09/12 07:54:04;;;;;;;11.90;7.20;;;;;;;24.39;63.29;96575.83;109009;1272;22522;-76
2023/09/12 07:56:35;;;;;;;8.70;7.20;;;;;;;24.28;63.24;96575.74;108998;1269;23797;-76
2023/09/12 07:59:12;;;;;;;30.60;22.70;;;;;;;24.18;63.19;96573.73;108851;1267;23673;-90
2023/09/12 08:02:03;;;;;;;115.30;84.90;;;;;;;24.09;63.48;96575.95;109194;1270;79974;-92
2023/09/12 08:04:41;;;;;;;14.00;12.00;;;;;;;24.12;63.62;96575.75;109220;1267;24215;-90
2023/09/12 08:07:43;;;;;;;28.30;20.40;;;;;;;24.16;63.26;96574.02;109211;1272;25423;-91
2023/09/12 08:10:47;;;;;;;28.00;18.60;;;;;;;24.28;63.43;96579.98;107530;1272;2056539;-91
2023/09/12 08:17:14;;;;;;;31.90;23.10;;;;;;;24.53;62.81;96582.95;109182;1270;22556;-90
2023/09/12 08:19:48;;;;;;;13.50;11.00;;;;;;;24.68;62.97;96585.77;109173;1267;22502;-91
2023/09/12 08:22:31;;;;;;;24.40;19.30;;;;;;;24.77;62.94;96581.36;109100;1267;55392;-92
2023/09/12 08:25:18;;;;;;;;;;;;;;;;;;;;;
2023/09/12 08:27:52;;;;;;;8.90;6.80;;;;;;;24.91;62.62;96578.05;109297;1271;25414;-89
2023/09/12 08:33:46;;;;;;;13.30;7.90;;;;;;;25.18;62.39;96579.16;109206;1267;22522;-92
2023/09/12 08:36:20;;;;;;;11.20;6.90;;;;;;;25.32;61.60;96580.61;109231;1272;22562;-91
2023/09/12 08:41:47;;;;;;;8.90;6.50;;;;;;;25.48;61.85;96576.33;104699;1273;5460074;-92
2023/09/12 08:44:35;;;;;;;9.10;7.10;;;;;;;25.66;61.91;96578.96;109256;1270;22507;-92
2023/09/12 16:27:00;;;;;;;8.90;8.00;;;;;;;26.53;53.70;96508.57;108855;1274;22529;-87
2023/09/12 17:00:28;;;;;;;11.60;9.00;;;;;;;23.70;58.92;96523.88;108235;1271;22655;-88
2023/09/12 17:31:38;;;;;;;9.60;8.60;;;;;;;22.81;61.11;96516.77;102828;1289;6509426;-95
2023/09/12 17:34:34;;;;;;;;;;;;;;;22.65;61.44;96525.66;108330;1283;62231;-93
2023/09/12 17:37:24;;;;;;;10.70;9.50;;;;;;;22.34;62.00;96527.93;108320;1285;23357;-95
2023/09/12 17:40:10;;;;;;;13.60;12.20;;;;;;;22.30;62.81;96527.33;108304;1267;23217;-94
2023/09/12 17:42:52;;;;;;;12.50;11.20;;;;;;;22.34;62.92;96528.70;108417;1276;22588;-94
2023/09/12 17:45:34;;;;;;;;;;;;;;;;;;;;;
2023/09/12 17:48:40;;;;;;;13.60;12.10;;;;;;;22.02;63.50;96529.73;108691;1279;24186;-93
2023/09/12 17:51:31;;;;;;;10.90;9.90;;;;;;;21.92;63.83;96530.58;108682;1271;24338;-92
2023/09/12 17:54:36;;;;;;;13.30;10.70;;;;;;;21.88;64.24;96527.42;108786;1269;2113381;-94
2023/09/12 17:57:42;;;;;;;13.80;10.40;;;;;;;21.89;64.70;96519.51;108793;1274;22576;-95
2023/09/12 18:00:55;;;;;;;12.80;11.30;;;;;;;21.77;64.04;96518.08;108929;1268;22571;-94
2023/09/12 18:03:32;;;;;;;14.30;12.90;;;;;;;21.48;64.39;96527.75;108967;1274;22544;-94
2023/09/12 18:09:48;;;;;;;15.00;13.40;;;;;;;21.07;65.41;96536.92;108795;1274;25331;-93
2023/09/12 18:12:32;;;;;;;15.60;11.70;;;;;;;20.93;65.92;96536.34;108888;1274;22571;-92
2023/09/12 18:15:40;;;;;;;12.40;11.10;;;;;;;20.83;66.49;96539.38;108829;1267;87916;-94
2023/09/12 18:18:44;;;;;;;12.40;10.00;;;;;;;20.88;66.76;96540.61;109056;1275;24185;-96
2023/09/12 18:22:11;;;;;;;12.80;9.70;;;;;;;20.75;66.64;96539.25;109690;1252;22524;-96
2023/09/12 18:28:51;;;;;;;12.60;10.90;;;;;;;20.72;67.27;96545.42;108989;1269;22546;-95
2023/09/12 18:31:39;;;;;;;12.20;10.90;;;;;;;20.53;67.41;96541.36;109081;1270;22588;-93
2023/09/12 18:37:21;;;;;;;10.30;9.30;;;;;;;20.16;68.28;96545.31;109006;1275;24232;-94
2023/09/12 18:40:00;;;;;;;11.10;9.60;;;;;;;20.08;68.48;96540.63;109434;1275;23192;-93
2023/09/12 18:48:50;;;;;;;12.00;10.50;;;;;;;19.92;69.19;96543.72;109493;1271;22514;-96
2023/09/12 18:54:45;;;;;;;11.10;10.00;;;;;;;19.99;69.85;96538.37;109212;1273;22519;-95
2023/09/12 18:57:59;;;;;;;12.30;9.90;;;;;;;20.19;69.96;96533.77;109270;1265;25452;-96
2023/09/12 19:00:57;;;;;;;11.70;10.50;;;;;;;20.07;69.70;96534.85;109153;1275;22680;-96
2023/09/12 19:04:01;;;;;;;14.40;12.00;;;;;;;19.88;69.86;96538.14;108981;1267;22542;-95
2023/09/12 19:06:40;;;;;;;15.70;14.00;;;;;;;19.71;70.15;96543.77;109221;1270;52545;-95
2023/09/12 19:09:57;;;;;;;;;;;;;;;;;;;;;
2023/09/12 19:12:43;;;;;;;11.50;10.00;;;;;;;19.68;70.87;96546.60;108751;1280;22523;-95
2023/09/12 19:15:36;;;;;;;;;;;;;;;19.76;70.94;96544.47;108587;1280;94523;-95
2023/09/12 19:18:42;;;;;;;15.00;10.10;;;;;;;19.89;71.33;96545.77;108556;1277;23029;-96
2023/09/12 19:21:30;;;;;;;10.60;9.60;;;;;;;19.95;70.97;96541.02;108580;1264;22577;-91
2023/09/12 19:24:33;;;;;;;14.70;12.30;;;;;;;19.85;71.08;96542.37;108437;1280;22560;-92
2023/09/12 19:27:36;;;;;;;14.00;10.80;;;;;;;19.75;71.00;96545.52;108943;1269;22576;-96
2023/09/12 19:30:20;;;;;;;12.20;11.00;;;;;;;19.62;71.21;96543.43;109122;1272;22600;-96
2023/09/12 19:32:49;;;;;;;15.90;10.40;;;;;;;19.63;71.25;96544.68;109217;1270;22572;-94
2023/09/12 19:35:41;;;;;;;13.60;11.00;;;;;;;19.70;71.51;96543.66;105669;1269;4524167;-96
2023/09/12 19:38:39;;;;;;;12.60;11.10;;;;;;;19.81;71.54;96543.22;109097;1272;25904;-96
2023/09/12 19:41:21;;;;;;;12.10;10.80;;;;;;;19.94;71.60;96541.44;109079;1275;24047;-95
2023/09/12 19:44:07;;;;;;;11.60;10.40;;;;;;;20.06;71.59;96535.89;109029;1260;25398;-95
2023/09/12 19:46:54;;;;;;;10.70;9.70;;;;;;;20.12;71.45;96533.53;109016;1275;47606;-96
2023/09/12 19:49:40;;;;;;;11.40;9.50;;;;;;;20.19;71.28;96533.31;109032;1275;22092;-95
2023/09/12 19:52:20;;;;;;;11.70;9.90;;;;;;;20.11;70.95;96537.96;109044;1275;25507;-94
2023/09/12 19:55:04;;;;;;;12.80;10.80;;;;;;;20.04;70.97;96535.44;109152;1275;22486;-95
2023/09/12 19:57:51;;;;;;;11.90;10.60;;;;;;;19.96;71.01;96536.51;109116;1270;22568;-94
2023/09/12 20:00:46;;;;;;;11.50;10.40;;;;;;;19.85;71.11;96541.90;109108;1275;23996;-95
2023/09/12 20:03:20;;;;;;;11.30;10.20;;;;;;;19.82;71.15;96541.55;109304;1270;22779;-95
2023/09/12 20:06:16;;;;;;;10.20;9.10;;;;;;;19.84;71.62;96536.78;108989;1275;134861;-94
2023/09/12 20:09:10;;;;;;;11.10;9.20;;;;;;;19.96;71.74;96535.11;109047;1273;22532;-92
2023/09/12 20:12:05;;;;;;;13.00;10.30;;;;;;;19.97;71.38;96533.02;109055;1269;25829;-95
2023/09/12 20:15:00;;;;;;;11.10;10.00;;;;;;;19.90;71.34;96538.80;109126;1275;22541;-93
2023/09/12 20:17:40;;;;;;;10.60;9.50;;;;;;;19.82;71.40;96536.65;108988;1270;69129;-96
2023/09/12 20:21:01;;;;;;;10.40;9.40;;;;;;;19.79;71.66;96539.86;108873;1270;22523;-95
2023/09/12 20:23:54;;;;;;;10.80;9.50;;;;;;;19.75;71.64;96539.35;108839;1276;24022;-94
2023/09/12 20:26:50;;;;;;;11.70;9.80;;;;;;;19.71;71.76;96536.70;108894;1273;66337;-95
2023/09/12 20:30:23;;;;;;;12.80;9.70;;;;;;;19.74;72.05;96539.64;109102;1269;22521;-96
2023/09/12 20:34:11;;;;;;;12.70;10.20;;;;;;;19.78;72.10;96534.91;109237;1276;22620;-94
2023/09/12 20:37:57;;;;;;;11.40;10.20;;;;;;;19.86;72.02;96538.16;108963;1279;63499;-95
2023/09/12 20:41:04;;;;;;;11.90;10.00;;;;;;;19.87;71.92;96538.88;108602;1261;22522;-96
2023/09/12 20:44:33;;;;;;;14.50;11.10;;;;;;;19.83;72.13;96540.12;108684;1283;22551;-96
2023/09/12 20:47:19;;;;;;;12.20;10.30;;;;;;;19.79;72.24;96539.23;108228;1286;56583;-96
2023/09/12 20:50:14;;;;;;;12.10;10.80;;;;;;;19.71;72.06;96540.39;108235;1280;23950;-95
2023/09/12 20:53:04;;;;;;;13.20;10.20;;;;;;;19.60;72.30;96538.37;108379;1280;23109;-96
2023/09/12 20:56:03;;;;;;;12.80;10.60;;;;;;;19.54;72.38;96537.42;108653;1274;65096;-96
2023/09/12 20:58:43;;;;;;;11.80;10.60;;;;;;;19.54;72.72;96541.46;108918;1272;25528;-94
2023/09/12 21:01:19;;;;;;;12.70;10.60;;;;;;;19.59;72.92;96537.33;108986;1278;23195;-95
2023/09/12 21:03:51;;;;;;;12.00;10.80;;;;;;;19.62;72.78;96535.59;108998;1275;25379;-95
2023/09/12 21:06:22;;;;;;;12.30;10.70;;;;;;;19.65;73.02;96540.59;109090;1273;53392;-95
2023/09/12 21:08:56;;;;;;;13.50;10.10;;;;;;;19.71;72.93;96542.63;109163;1270;22521;-95
2023/09/12 21:12:08;;;;;;;12.50;11.20;;;;;;;19.74;73.06;96541.80;109156;1276;22624;-94
2023/09/12 21:14:49;;;;;;;13.40;11.80;;;;;;;19.79;72.91;96543.31;109024;1273;25511;-95
2023/09/12 21:23:32;;;;;;;13.70;11.60;;;;;;;19.92;73.03;96544.25;108793;1276;24283;-93
2023/09/12 21:26:13;;;;;;;15.10;12.60;;;;;;;19.95;73.00;96540.48;107501;1267;2077807;-95